createdAt,value
2023-02-11T00:00:21.493Z,63.10
2023-02-11T00:02:48.263Z,55.00
2023-02-11T00:05:15.269Z,55.67
2023-02-11T00:07:41.931Z,59.00
2023-02-11T00:10:09.079Z,51.63
2023-02-11T00:12:36.734Z,66.40
2023-02-11T00:15:04.660Z,70.90
2023-02-11T00:17:32.943Z,62.65
2023-02-11T00:19:59.682Z,62.30
2023-02-11T00:22:26.416Z,61.58
2023-02-11T00:24:53.370Z,55.70
2023-02-11T00:27:20.083Z,51.60
2023-02-11T00:29:46.810Z,56.05
2023-02-11T00:32:13.502Z,60.72
2023-02-11T00:34:40.195Z,59.08
2023-02-11T00:37:07.114Z,52.78
2023-02-11T00:39:33.836Z,58.63
2023-02-11T00:42:03.328Z,48.17
2023-02-11T00:44:30.297Z,56.13
2023-02-11T00:46:56.960Z,57.17
2023-02-11T00:49:23.689Z,62.03
2023-02-11T00:51:50.382Z,57.63
2023-02-11T00:54:17.060Z,58.63
2023-02-11T00:56:43.747Z,67.00
2023-02-11T00:59:10.498Z,61.15
2023-02-11T01:01:37.266Z,65.90
2023-02-11T01:04:04.152Z,61.65
2023-02-11T01:06:30.922Z,63.47
2023-02-11T01:08:58.115Z,65.70
2023-02-11T01:11:24.922Z,59.05
2023-02-11T01:13:51.683Z,70.28
2023-02-11T01:16:19.226Z,66.50
2023-02-11T01:18:46.299Z,59.40
2023-02-11T01:21:13.099Z,56.97
2023-02-11T01:23:39.814Z,71.82
2023-02-11T01:26:06.748Z,61.20
2023-02-11T01:28:33.954Z,63.67
2023-02-11T01:31:02.467Z,68.50
2023-02-11T01:33:29.797Z,65.57
2023-02-11T01:36:01.573Z,69.55
2023-02-11T01:38:28.241Z,64.65
2023-02-11T01:40:57.817Z,61.40
2023-02-11T01:43:26.228Z,46.95
2023-02-11T01:46:20.381Z,58.40
2023-02-11T01:48:55.323Z,55.17
2023-02-11T01:51:29.381Z,65.78
2023-02-11T01:54:15.640Z,52.95
2023-02-11T01:57:05.018Z,52.97
2023-02-11T01:59:38.276Z,55.67
2023-02-11T02:02:10.630Z,55.72
2023-02-11T02:04:50.133Z,57.47
2023-02-11T02:07:43.013Z,54.60
2023-02-11T02:10:15.641Z,59.15
2023-02-11T02:12:42.469Z,61.05
2023-02-11T02:15:19.687Z,58.72
2023-02-11T02:18:05.184Z,57.38
2023-02-11T02:20:52.443Z,60.47
2023-02-11T02:23:28.517Z,60.30
2023-02-11T02:26:14.130Z,62.30
2023-02-11T02:29:19.234Z,65.70
2023-02-11T02:32:17.108Z,63.38
2023-02-11T02:35:02.383Z,62.03
2023-02-11T02:37:40.355Z,53.42
2023-02-11T02:40:12.727Z,67.63
2023-02-11T02:42:41.316Z,57.28
2023-02-11T02:45:10.839Z,56.85
2023-02-11T02:47:37.792Z,61.75
2023-02-11T02:50:07.450Z,64.22
2023-02-11T02:52:50.456Z,68.82
2023-02-11T02:55:32.018Z,56.28
2023-02-11T02:58:22.664Z,67.82
2023-02-11T03:01:09.655Z,65.45
2023-02-11T03:03:54.562Z,62.55
2023-02-11T03:06:32.239Z,65.45
2023-02-11T03:09:44.485Z,66.20
2023-02-11T03:12:13.530Z,59.13
2023-02-11T03:14:41.961Z,81.65
2023-02-11T03:17:10.217Z,63.03
2023-02-11T03:19:40.602Z,73.10
2023-02-11T03:22:27.047Z,67.35
2023-02-11T03:24:55.920Z,66.40
2023-02-11T03:27:31.653Z,65.30
2023-02-11T03:30:32.370Z,60.65
2023-02-11T03:33:07.174Z,66.90
2023-02-11T03:35:43.294Z,59.15
2023-02-11T03:38:17.735Z,65.10
2023-02-11T03:40:45.639Z,64.13
2023-02-11T03:43:22.729Z,68.60
2023-02-11T03:45:52.501Z,65.15
2023-02-11T03:48:36.190Z,59.22
2023-02-11T03:51:07.128Z,58.60
2023-02-11T03:53:34.755Z,63.15
2023-02-11T03:56:05.496Z,61.63
2023-02-11T03:58:32.200Z,54.72
2023-02-11T04:00:59.005Z,55.28
2023-02-11T04:03:25.692Z,64.57
2023-02-11T04:05:52.544Z,64.53
2023-02-11T04:08:19.356Z,57.10
2023-02-11T04:10:46.068Z,62.28
2023-02-11T04:13:12.765Z,56.63
2023-02-11T04:15:39.435Z,60.10
2023-02-11T04:18:06.213Z,57.67
2023-02-11T04:20:32.866Z,63.85
2023-02-11T04:22:59.543Z,63.20
2023-02-11T04:25:26.297Z,64.60
2023-02-11T04:27:53.030Z,59.47
2023-02-11T04:30:19.742Z,57.38
2023-02-11T04:32:47.430Z,57.90
2023-02-11T04:35:14.272Z,59.05
2023-02-11T04:37:40.939Z,55.83
2023-02-11T04:40:08.233Z,65.60
2023-02-11T04:42:34.889Z,62.40
2023-02-11T04:45:01.884Z,64.43
2023-02-11T04:47:28.551Z,56.97
2023-02-11T04:49:55.180Z,71.97
2023-02-11T04:52:21.832Z,50.28
2023-02-11T04:54:48.605Z,66.55
2023-02-11T04:57:15.331Z,56.40
2023-02-11T04:59:42.196Z,53.58
2023-02-11T05:02:08.956Z,64.53
2023-02-11T05:04:35.633Z,63.17
2023-02-11T05:07:02.312Z,59.13
2023-02-11T05:09:29.453Z,60.63
2023-02-11T05:11:57.025Z,65.38
2023-02-11T05:14:23.723Z,55.95
2023-02-11T05:16:50.403Z,60.45
2023-02-11T05:19:17.089Z,60.95
2023-02-11T05:21:56.688Z,58.15
2023-02-11T05:24:28.286Z,56.33
2023-02-11T05:26:54.987Z,58.50
2023-02-11T05:29:21.638Z,62.85
2023-02-11T05:31:48.766Z,63.42
2023-02-11T05:34:15.450Z,53.58
2023-02-11T05:36:42.103Z,55.70
2023-02-11T05:39:08.775Z,49.95
2023-02-11T05:41:35.450Z,49.65
2023-02-11T05:44:02.195Z,57.15
2023-02-11T05:46:28.936Z,61.30
2023-02-11T05:48:56.625Z,51.05
2023-02-11T05:51:25.275Z,44.35
2023-02-11T05:53:53.100Z,48.45
2023-02-11T05:56:19.808Z,55.50
2023-02-11T05:58:46.485Z,58.53
2023-02-11T06:01:13.176Z,49.75
2023-02-11T06:03:39.887Z,51.15
2023-02-11T06:06:11.471Z,56.35
2023-02-11T06:08:39.381Z,60.15
2023-02-11T06:11:06.244Z,52.30
2023-02-11T06:13:33.051Z,48.92
2023-02-11T06:16:01.254Z,46.22
2023-02-11T06:18:28.590Z,57.90
2023-02-11T06:20:55.486Z,51.33
2023-02-11T06:23:22.647Z,51.00
2023-02-11T06:25:50.052Z,55.83
2023-02-11T06:28:16.971Z,54.35
2023-02-11T06:30:43.706Z,49.65
2023-02-11T06:33:10.414Z,44.63
2023-02-11T06:35:40.073Z,55.05
2023-02-11T06:38:06.840Z,43.88
2023-02-11T06:40:33.557Z,47.72
2023-02-11T06:43:00.269Z,43.00
2023-02-11T06:45:27.077Z,56.83
2023-02-11T06:47:53.721Z,57.25
2023-02-11T06:50:20.582Z,37.72
2023-02-11T06:52:47.280Z,53.30
2023-02-11T06:55:14.065Z,49.92
2023-02-11T06:57:40.900Z,55.20
2023-02-11T07:00:08.334Z,52.92
2023-02-11T07:02:36.114Z,49.22
2023-02-11T07:05:02.905Z,52.25
2023-02-11T07:07:30.819Z,52.17
2023-02-11T07:09:59.165Z,48.15
2023-02-11T07:12:25.893Z,50.97
2023-02-11T07:14:52.930Z,54.83
2023-02-11T07:17:19.597Z,48.88
2023-02-11T07:19:46.348Z,52.10
2023-02-11T07:22:13.020Z,48.83
2023-02-11T07:24:39.720Z,46.65
2023-02-11T07:27:06.652Z,44.78
2023-02-11T07:29:33.394Z,49.92
2023-02-11T07:32:00.130Z,48.03
2023-02-11T07:34:26.902Z,39.88
2023-02-11T07:36:53.666Z,56.25
2023-02-11T07:39:21.894Z,50.53
2023-02-11T07:41:49.262Z,58.13
2023-02-11T07:44:16.603Z,52.35
2023-02-11T07:46:45.176Z,55.15
2023-02-11T07:49:12.517Z,49.25
2023-02-11T07:51:39.351Z,48.13
2023-02-11T07:54:06.086Z,52.53
2023-02-11T07:56:33.547Z,60.53
2023-02-11T07:59:03.387Z,54.63
2023-02-11T08:01:30.716Z,46.42
2023-02-11T08:03:59.432Z,54.65
2023-02-11T08:06:28.843Z,58.92
2023-02-11T08:08:55.726Z,55.55
2023-02-11T08:11:25.089Z,48.33
2023-02-11T08:14:03.415Z,51.20
2023-02-11T08:16:32.999Z,57.35
2023-02-11T08:19:02.974Z,48.25
2023-02-11T08:21:29.909Z,51.05
2023-02-11T08:23:56.981Z,51.20
2023-02-11T08:26:26.056Z,58.55
2023-02-11T08:28:54.864Z,61.00
2023-02-11T08:31:30.762Z,52.53
2023-02-11T08:34:02.214Z,60.42
2023-02-11T08:36:31.593Z,56.05
2023-02-11T08:39:15.904Z,61.08
2023-02-11T08:41:45.956Z,59.95
2023-02-11T08:44:13.230Z,57.28
2023-02-11T08:46:39.993Z,53.55
2023-02-11T08:49:06.708Z,53.88
2023-02-11T08:51:33.434Z,60.50
2023-02-11T08:54:00.760Z,58.00
2023-02-11T08:56:28.346Z,62.30
2023-02-11T08:58:55.318Z,58.53
2023-02-11T09:01:24.691Z,54.17
2023-02-11T09:03:51.914Z,52.72
2023-02-11T09:06:19.643Z,59.97
2023-02-11T09:08:51.690Z,56.17
2023-02-11T09:13:46.616Z,55.83
2023-02-11T09:16:21.937Z,52.78
2023-02-11T09:18:48.761Z,63.63
2023-02-11T09:21:16.700Z,50.70
2023-02-11T09:23:44.761Z,65.10
2023-02-11T09:26:16.051Z,62.85
2023-02-11T09:28:42.991Z,56.45
2023-02-11T09:31:13.956Z,60.50
2023-02-11T09:33:47.616Z,62.38
2023-02-11T09:36:20.482Z,58.78
2023-02-11T09:38:47.683Z,61.72
2023-02-11T09:41:25.401Z,60.47
2023-02-11T09:43:55.102Z,67.30
2023-02-11T09:46:23.046Z,56.83
2023-02-11T09:48:52.983Z,58.95
2023-02-11T09:51:40.557Z,68.45
2023-02-11T09:54:34.105Z,51.05
2023-02-11T09:57:00.999Z,56.10
2023-02-11T09:59:27.795Z,61.75
2023-02-11T10:02:20.133Z,57.20
2023-02-11T10:05:13.321Z,69.35
2023-02-11T10:07:59.154Z,62.78
2023-02-11T10:11:22.591Z,56.92
2023-02-11T10:14:01.856Z,65.75
2023-02-11T10:19:24.969Z,60.25
2023-02-11T10:22:27.533Z,68.38
2023-02-11T10:27:32.745Z,59.60
2023-02-11T10:30:09.694Z,65.40
2023-02-11T10:32:48.491Z,57.20
2023-02-11T10:35:24.534Z,55.63
2023-02-11T10:37:51.212Z,58.05
2023-02-11T10:40:25.335Z,58.25
2023-02-11T10:43:01.135Z,66.80
2023-02-11T10:45:52.600Z,65.68
2023-02-11T10:48:39.085Z,64.10
2023-02-11T10:51:14.756Z,64.30
2023-02-11T10:53:42.019Z,61.75
2023-02-11T10:56:12.056Z,58.63
2023-02-11T10:58:45.174Z,64.07
2023-02-11T11:01:23.983Z,62.80
2023-02-11T11:03:52.648Z,57.90
2023-02-11T11:06:31.514Z,61.90
2023-02-11T11:08:58.808Z,60.22
2023-02-11T11:11:27.114Z,67.43
2023-02-11T11:13:57.915Z,59.05
2023-02-11T11:16:25.653Z,55.78
2023-02-11T11:19:13.877Z,55.80
2023-02-11T11:21:55.152Z,68.45
2023-02-11T11:24:40.003Z,61.37
2023-02-11T11:27:06.967Z,54.67
2023-02-11T11:29:45.794Z,63.60
2023-02-11T11:32:20.791Z,60.55
2023-02-11T11:34:56.509Z,56.92
2023-02-11T11:37:28.630Z,58.35
2023-02-11T11:42:40.424Z,50.88
2023-02-11T11:45:16.156Z,53.53
2023-02-11T11:47:54.202Z,50.83
2023-02-11T11:50:30.602Z,53.47
2023-02-11T11:53:01.728Z,58.13
2023-02-11T11:55:39.091Z,60.17
2023-02-11T11:58:10.545Z,44.72
2023-02-11T12:01:05.544Z,49.15
2023-02-11T12:03:58.588Z,49.35
2023-02-11T12:06:39.876Z,50.97
2023-02-11T12:09:34.361Z,52.77
2023-02-11T12:12:32.505Z,52.80
2023-02-11T12:15:26.297Z,46.35
2023-02-11T12:18:22.142Z,50.13
2023-02-11T12:21:20.873Z,46.95
2023-02-11T12:24:05.397Z,46.33
2023-02-11T12:26:43.263Z,48.10
2023-02-11T12:29:17.786Z,56.05
2023-02-11T12:32:11.041Z,45.75
2023-02-11T12:35:05.884Z,49.10
2023-02-11T12:37:48.950Z,47.65
2023-02-11T12:40:30.718Z,48.50
2023-02-11T12:43:18.230Z,45.40
2023-02-11T12:46:07.001Z,47.67
2023-02-11T12:49:10.759Z,49.33
2023-02-11T12:51:49.329Z,49.60
2023-02-11T12:54:39.150Z,47.42
2023-02-11T12:57:17.368Z,55.22
2023-02-11T13:00:02.221Z,50.00
2023-02-11T13:02:45.758Z,46.63
2023-02-11T13:05:25.457Z,50.45
2023-02-11T13:07:56.879Z,55.00
2023-02-11T13:10:37.652Z,49.20
2023-02-11T13:13:16.283Z,59.38
2023-02-11T13:15:46.792Z,52.42
2023-02-11T13:18:24.045Z,47.05
2023-02-11T13:21:13.069Z,58.80
2023-02-11T13:23:51.906Z,54.35
2023-02-11T13:26:52.311Z,53.42
2023-02-11T13:29:43.908Z,44.05
2023-02-11T13:32:15.703Z,46.08
2023-02-11T13:34:42.356Z,67.15
2023-02-11T13:37:27.527Z,56.53
2023-02-11T13:40:06.552Z,61.58
2023-02-11T13:42:46.431Z,59.35
2023-02-11T13:45:36.061Z,54.08
2023-02-11T13:48:06.153Z,55.17
2023-02-11T13:50:39.534Z,51.95
2023-02-11T13:53:08.730Z,62.20
2023-02-11T13:55:35.863Z,52.22
2023-02-11T13:58:08.326Z,52.60
2023-02-11T14:00:35.013Z,59.22
2023-02-11T14:03:29.234Z,48.80
2023-02-11T14:06:40.332Z,58.20
2023-02-11T14:09:09.843Z,56.10
2023-02-11T14:11:47.372Z,47.72
2023-02-11T14:14:33.390Z,57.20
2023-02-11T14:17:00.252Z,53.35
2023-02-11T14:19:43.516Z,48.28
2023-02-11T14:22:17.488Z,39.85
2023-02-11T14:24:51.513Z,55.05
2023-02-11T14:27:34.988Z,52.03
2023-02-11T14:30:24.242Z,55.30
2023-02-11T14:32:58.083Z,43.70
2023-02-11T14:35:44.313Z,59.85
2023-02-11T14:38:27.065Z,57.22
2023-02-11T14:41:16.057Z,54.35
2023-02-11T14:43:47.362Z,49.75
2023-02-11T14:46:17.560Z,50.72
2023-02-11T14:48:50.247Z,56.70
2023-02-11T14:51:23.398Z,57.28
2023-02-11T14:53:53.011Z,55.25
2023-02-11T14:56:26.438Z,54.83
2023-02-11T14:58:55.810Z,55.78
2023-02-11T15:01:35.710Z,49.78
2023-02-11T15:04:05.656Z,43.95
2023-02-11T15:06:37.540Z,57.67
2023-02-11T15:09:28.011Z,39.95
2023-02-11T15:11:56.385Z,53.33
2023-02-11T15:14:32.659Z,46.17
2023-02-11T15:17:09.324Z,50.17
2023-02-11T15:19:44.611Z,49.85
2023-02-11T15:22:21.876Z,49.25
2023-02-11T15:25:11.751Z,52.60
2023-02-11T15:27:44.477Z,51.15
2023-02-11T15:30:24.898Z,45.00
2023-02-11T15:33:02.722Z,46.03
2023-02-11T15:35:40.834Z,54.05
2023-02-11T15:38:09.966Z,56.97
2023-02-11T15:40:37.737Z,54.55
2023-02-11T15:43:07.611Z,51.00
2023-02-11T15:45:53.424Z,56.50
2023-02-11T15:48:26.519Z,45.67
2023-02-11T15:51:01.048Z,57.22
2023-02-11T15:53:42.207Z,47.45
2023-02-11T15:56:27.147Z,46.55
2023-02-11T15:58:57.260Z,53.33
2023-02-11T16:01:36.593Z,60.72
2023-02-11T16:04:05.470Z,52.28
2023-02-11T16:06:42.707Z,46.20
2023-02-11T16:09:10.954Z,50.65
2023-02-11T16:11:56.117Z,53.13
2023-02-11T16:14:36.818Z,52.67
2023-02-11T16:17:11.138Z,51.08
2023-02-11T16:19:47.393Z,51.45
2023-02-11T16:22:18.870Z,53.45
2023-02-11T16:24:49.288Z,50.83
2023-02-11T16:27:29.683Z,63.10
2023-02-11T16:29:57.501Z,52.22
2023-02-11T16:32:27.406Z,47.50
2023-02-11T16:34:57.809Z,46.75
2023-02-11T16:37:25.376Z,52.47
2023-02-11T16:40:00.663Z,54.55
2023-02-11T16:42:27.338Z,50.03
2023-02-11T16:44:54.992Z,46.25
2023-02-11T16:47:27.732Z,52.45
2023-02-11T16:49:56.033Z,43.15
2023-02-11T16:52:23.128Z,50.13
2023-02-11T16:54:50.006Z,47.05
2023-02-11T16:57:19.164Z,53.60
2023-02-11T16:59:46.119Z,48.97
2023-02-11T17:02:23.623Z,44.35
2023-02-11T17:04:52.619Z,48.28
2023-02-11T17:07:19.434Z,50.28
2023-02-11T17:09:46.080Z,50.33
2023-02-11T17:12:12.730Z,49.10
2023-02-11T17:14:39.409Z,48.75
2023-02-11T17:17:06.096Z,52.22
2023-02-11T17:19:32.790Z,45.42
2023-02-11T17:21:59.457Z,47.03
2023-02-11T17:24:26.133Z,49.63
2023-02-11T17:26:52.833Z,46.80
2023-02-11T17:29:22.888Z,47.72
2023-02-11T17:31:51.719Z,57.22
2023-02-11T17:34:19.763Z,52.47
2023-02-11T17:36:46.530Z,49.35
2023-02-11T17:39:13.483Z,48.80
2023-02-11T17:41:40.925Z,47.22
2023-02-11T17:44:10.698Z,49.50
2023-02-11T17:46:37.352Z,54.90
2023-02-11T17:49:04.573Z,52.63
2023-02-11T17:51:34.390Z,48.97
2023-02-11T17:54:04.406Z,51.40
2023-02-11T17:56:36.154Z,48.22
2023-02-11T17:59:03.979Z,43.08
2023-02-11T18:01:32.343Z,46.95
2023-02-11T18:03:59.688Z,53.85
2023-02-11T18:06:26.379Z,48.83
2023-02-11T18:08:53.807Z,42.58
2023-02-11T18:11:25.101Z,49.33
2023-02-11T18:13:54.421Z,48.25
2023-02-11T18:16:22.855Z,43.97
2023-02-11T18:18:50.275Z,44.15
2023-02-11T18:21:19.460Z,47.60
2023-02-11T18:23:46.683Z,61.05
2023-02-11T18:26:14.857Z,45.08
2023-02-11T18:28:44.532Z,46.13
2023-02-11T18:31:12.675Z,53.65
2023-02-11T18:33:40.932Z,48.17
2023-02-11T18:36:13.126Z,43.85
2023-02-11T18:38:40.782Z,41.92
2023-02-11T18:41:07.679Z,55.72
2023-02-11T18:43:35.191Z,45.83
2023-02-11T18:46:06.451Z,41.90
2023-02-11T18:48:33.277Z,39.58
2023-02-11T18:50:59.960Z,36.33
2023-02-11T18:53:26.671Z,44.50
2023-02-11T18:55:54.199Z,36.45
2023-02-11T18:58:21.320Z,41.45
2023-02-11T19:00:48.864Z,47.60
2023-02-11T19:03:15.874Z,49.33
2023-02-11T19:05:48.077Z,51.83
2023-02-11T19:08:15.884Z,47.63
2023-02-11T19:10:45.045Z,36.78
2023-02-11T19:13:12.869Z,44.30
2023-02-11T19:15:46.659Z,40.67
2023-02-11T19:18:15.827Z,47.95
2023-02-11T19:20:43.757Z,41.95
2023-02-11T19:23:11.299Z,40.05
2023-02-11T19:25:44.551Z,46.63
2023-02-11T19:28:11.624Z,44.10
2023-02-11T19:30:38.680Z,37.53
2023-02-11T19:33:05.593Z,38.85
2023-02-11T19:35:35.632Z,42.30
2023-02-11T19:38:05.990Z,39.78
2023-02-11T19:40:32.875Z,47.42
2023-02-11T19:42:59.971Z,41.83
2023-02-11T19:45:27.025Z,38.28
2023-02-11T19:47:56.709Z,39.90
2023-02-11T19:50:23.540Z,44.47
2023-02-11T19:52:50.438Z,40.55
2023-02-11T19:55:17.154Z,39.33
2023-02-11T19:57:43.931Z,38.53
2023-02-11T20:00:11.313Z,34.30
2023-02-11T20:02:41.705Z,46.35
2023-02-11T20:05:09.295Z,38.38
2023-02-11T20:07:35.990Z,42.45
2023-02-11T20:10:02.689Z,38.53
2023-02-11T20:12:29.573Z,35.90
2023-02-11T20:14:56.265Z,42.55
2023-02-11T20:17:22.901Z,39.10
2023-02-11T20:19:49.780Z,42.80
2023-02-11T20:22:16.454Z,45.30
2023-02-11T20:24:43.154Z,36.67
2023-02-11T20:27:11.491Z,43.00
2023-02-11T20:29:38.934Z,41.15
2023-02-11T20:32:06.691Z,32.95
2023-02-11T20:34:35.054Z,34.05
2023-02-11T20:37:02.912Z,35.80
2023-02-11T20:39:29.622Z,33.92
2023-02-11T20:41:57.489Z,42.05
2023-02-11T20:44:25.040Z,35.10
2023-02-11T20:46:53.885Z,38.88
2023-02-11T20:49:22.994Z,36.35
2023-02-11T20:51:49.971Z,36.17
2023-02-11T20:54:18.522Z,39.42
2023-02-11T20:56:48.128Z,38.65
2023-02-11T20:59:16.331Z,36.15
2023-02-11T21:01:45.557Z,43.13
2023-02-11T21:04:18.800Z,37.47
2023-02-11T21:06:48.748Z,30.85
2023-02-11T21:09:19.544Z,35.72
2023-02-11T21:11:46.778Z,36.70
2023-02-11T21:14:13.770Z,36.63
2023-02-11T21:16:41.091Z,40.35
2023-02-11T21:19:08.154Z,31.33
2023-02-11T21:21:36.207Z,35.60
2023-02-11T21:24:03.444Z,37.17
2023-02-11T21:26:30.265Z,38.90
2023-02-11T21:28:56.980Z,35.70
2023-02-11T21:31:26.279Z,40.50
2023-02-11T21:33:55.023Z,32.60
2023-02-11T21:36:23.099Z,32.65
2023-02-11T21:38:50.107Z,36.45
2023-02-11T21:41:18.338Z,31.85
2023-02-11T21:43:45.214Z,32.38
2023-02-11T21:46:14.045Z,35.33
2023-02-11T21:48:40.938Z,34.78
2023-02-11T21:51:11.570Z,36.40
2023-02-11T21:53:38.641Z,32.38
2023-02-11T21:56:08.021Z,33.55
2023-02-11T21:58:35.209Z,30.35
2023-02-11T22:01:02.330Z,31.55
2023-02-11T22:03:29.104Z,29.08
2023-02-11T22:05:56.209Z,32.35
2023-02-11T22:08:23.016Z,29.60
2023-02-11T22:10:49.710Z,32.55
2023-02-11T22:13:16.407Z,34.90
2023-02-11T22:15:43.067Z,22.27
2023-02-11T22:18:09.702Z,22.33
2023-02-11T22:20:36.529Z,23.50
2023-02-11T22:23:03.388Z,24.60
2023-02-11T22:25:30.172Z,26.15
2023-02-11T22:27:56.932Z,31.95
2023-02-11T22:30:23.621Z,26.52
2023-02-11T22:32:50.277Z,28.73
2023-02-11T22:35:17.090Z,24.20
2023-02-11T22:37:43.764Z,20.02
2023-02-11T22:40:10.997Z,27.70
2023-02-11T22:42:37.680Z,24.63
2023-02-11T22:45:04.524Z,22.88
2023-02-11T22:47:31.166Z,28.05
2023-02-11T22:49:57.858Z,21.40
2023-02-11T22:52:24.587Z,22.95
2023-02-11T22:54:52.105Z,18.05
2023-02-11T22:57:18.798Z,18.40
2023-02-11T22:59:45.788Z,19.30
2023-02-11T23:02:12.615Z,17.67
2023-02-11T23:04:39.456Z,17.10
2023-02-11T23:07:06.134Z,21.50
2023-02-11T23:09:32.819Z,22.10
2023-02-11T23:11:59.453Z,13.02
2023-02-11T23:14:26.476Z,17.67
2023-02-11T23:16:53.193Z,16.38
2023-02-11T23:19:19.984Z,21.00
2023-02-11T23:21:50.267Z,25.33
2023-02-11T23:24:16.953Z,17.95
2023-02-11T23:26:44.425Z,21.95
2023-02-11T23:29:11.981Z,17.20
2023-02-11T23:31:41.114Z,20.02
2023-02-11T23:34:09.100Z,15.30
2023-02-11T23:36:36.310Z,16.35
2023-02-11T23:39:03.984Z,14.02
2023-02-11T23:41:30.775Z,16.02
2023-02-11T23:43:58.280Z,14.85
2023-02-11T23:46:28.274Z,17.55
2023-02-11T23:48:55.130Z,11.27
2023-02-11T23:51:22.777Z,15.18
2023-02-11T23:53:50.462Z,17.80
2023-02-11T23:56:22.853Z,17.73
2023-02-11T23:58:50.806Z,13.10
